Overview Statistics Trail Chart Weather Telemetry Raw packets
 

This is the latest recevied weather packets stored in our database for station/object OK1FET-4. If no packets are shown the sender has not sent any weather packets the latest 10 day(s).

<< 19 20 21 22 23 24 25 >>
Time Temp. Humidity Pressure Rain* Wind** Luminosity Snow
1788520670 26.11° C 54% 1015.6 hPa - - - -
1788520368 26.11° C 54% 1015.8 hPa - - - -
1788520067 26.67° C 53% 1015.8 hPa - - - -
1788519765 26.11° C 56% 1015.8 hPa - - - -
1788519464 25.56° C 56% 1015.8 hPa - - - -
1788519162 25.56° C 57% 1016 hPa - - - -
1788518861 25.56° C 57% 1016.1 hPa - - - -
1788518560 25° C 57% 1016.3 hPa - - - -
1788518259 25° C 57% 1016.2 hPa - - - -
1788517957 25.56° C 55% 1016.1 hPa - - - -
1788517656 25.56° C 56% 1016.4 hPa - - - -
1788517354 25° C 58% 1016.3 hPa - - - -
1788517053 24.44° C 59% 1016.1 hPa - - - -
1788516752 25° C 57% 1016.4 hPa - - - -
1788516451 25° C 57% 1016.6 hPa - - - -
1788516149 25° C 58% 1016.6 hPa - - - -
1788515848 25° C 58% 1016.6 hPa - - - -
1788515547 24.44° C 59% 1016.9 hPa - - - -
1788515245 24.44° C 59% 1016.9 hPa - - - -
1788514944 24.44° C 59% 1017 hPa - - - -
1788514643 24.44° C 59% 1017 hPa - - - -
1788514341 24.44° C 60% 1017.1 hPa - - - -
1788514040 23.89° C 61% 1017.1 hPa - - - -
1788513739 23.33° C 61% 1017.2 hPa - - - -
1788513437 23.89° C 60% 1017.2 hPa - - - -

* Rain since midnight (hover to see other rain measurements)
** Current wind speed in m/s (hover to see current wind gust speed)